Weerspreuk van de week. Komen de pluimen aan het riet, bedenk het is nazomer en geniet.
Het weer levert geen direct gevaar op.    Er zijn geen waarschuwingen afgegeven.


Onweer radar Meer informatie blitzortung!


Regen radar Meer informatie rain snow radar


Bekijk deze sites ook eens:

FPL Automotive (TIP)

Autostekkers.nl (TIP)

Over Luyksgestel

De Kempen, mijn omgeving

BOL.com

Weerstation Noordbergum

Inktweb

Weerstation Hapert

Weerstation Hoogeloon

Weerstation Son&Breugel

Weerstation Castaert

Smartphonehoesjes

Weerstation Tilburg Reeshof

Weerstation Scheulder

Weerverwachting Samos

Samos actueel

Weerwoord (forum)

Griekenlandforum

Vakantie naar Samos

Zomerzon

Canon

Wolven in Nederland



METAR rapporten vliegvelden

   
EBAW - Antwerp
Gewijzigd: 19-09-2019 13:50
Gedeeltelijk bewolkt  
Gedeeltelijk bewolkt  
   Wind: NO 9.3 km/h
Wind: NO 9.3 km/h
Temperatuur: 18°C
Dauwpunt: 7°C
Vochtigheid: 49%
Barometer: 1031 hPa
Bewolking: Gedeeltelijk bewolkt
Zicht: meer dan 10 km
Bewolking: Gedeeltelijk bewolkt 4000 ft
EBAW 191150Z 05005KT 340V100 9999 SCT040 18/07 Q1031 NOSIG
EBLG - Liège
Gewijzigd: 19-09-2019 13:50
Licht bewolkt  
Licht bewolkt  
   Wind: NNO 16.7 km/h
Wind: NNO 16.7 km/h
Temperatuur: 14°C
Dauwpunt: 4°C
Vochtigheid: 51%
Barometer: 1031 hPa
Bewolking: Licht bewolkt
Zicht: meer dan 10 km
Bewolking: Licht bewolkt 4000 ft
EBLG 191150Z 03009KT 360V060 9999 FEW040 14/04 Q1031 NOSIG
EBCV - Mons/Bergen
Gewijzigd: 19-09-2019 13:55
Licht bewolkt  
Licht bewolkt  
   Wind: NO 14.8 km/h
Wind: NO 14.8 km/h
Temperatuur: 17°C
Dauwpunt: 6°C
Vochtigheid: 49%
Barometer: 1031 hPa
Bewolking: Licht bewolkt
Zicht: meer dan 10 km
Bewolking: Licht bewolkt 4200 ft
EBCV 191155Z AUTO 04008KT 9999 FEW042/// 17/06 Q1031 BLU
EHBK - Maastricht
Gewijzigd: 19-09-2019 13:55
Grotendeels bewolkt  
Grotendeels bewolkt  
   Wind: NNO 14.8 km/h
Wind: NNO 14.8 km/h
Temperatuur: 16°C
Dauwpunt: 5°C
Vochtigheid: 48%
Barometer: 1030 hPa
Bewolking: Grotendeels bewolkt
Zicht: meer dan 10 km
Bewolking: Grotendeels bewolkt 4100 ft,
Grotendeels bewolkt 4600 ft
EHBK 191155Z AUTO 02008KT 320V060 9999 BKN041 BKN046 16/05 Q1030 NOSIG
ELLX - Luxemburg
Gewijzigd: 19-09-2019 13:50
Helder  
Helder  
   Wind: NO 22.2 km/h
Wind: NO 22.2 km/h
Temperatuur: 15°C
Dauwpunt: 2°C
Vochtigheid: 42%
Barometer: 1029 hPa
Zicht: meer dan 10 km
Bewolking: Helder
ELLX 191150Z 05012KT 010V130 CAVOK 15/02 Q1029 NOSIG
EBOS - Oostende
Gewijzigd: 19-09-2019 13:50
Gedeeltelijk bewolkt  
Gedeeltelijk bewolkt  
   Wind: NO 18.5 km/h
Wind: NO 18.5 km/h
Temperatuur: 17°C
Dauwpunt: 8°C
Vochtigheid: 56%
Barometer: 1032 hPa
Bewolking: Gedeeltelijk bewolkt
Zicht: meer dan 10 km
Bewolking: Licht bewolkt 3400 ft,
Gedeeltelijk bewolkt 4800 ft
EBOS 191150Z 04010KT 010V070 9999 FEW034 SCT048 17/08 Q1032 NOSIG

Script ontwikkeld door  Saratoga-weather.org Aangepast voor de template door  Weerstation Leuven

U vindt ons ook hier:

Het Weer Aktueel

UK Metoffice

European Weather Network

Weather Underground

AWEKAS



Lekker winkelen zonder zorgen - Gratis verzending en retour